createdAt,value
2022-11-19T00:00:01.212Z,8.00
2022-11-19T00:05:05.132Z,7.89
2022-11-19T00:10:10.735Z,7.79
2022-11-19T00:15:14.618Z,7.78
2022-11-19T00:20:18.621Z,7.70
2022-11-19T00:25:24.883Z,7.64
2022-11-19T00:35:52.398Z,7.49
2022-11-19T00:40:57.748Z,7.40
2022-11-19T00:46:01.523Z,7.36
2022-11-19T00:51:05.268Z,7.24
2022-11-19T00:56:13.464Z,7.17
2022-11-19T01:01:19.505Z,7.18
2022-11-19T01:06:26.748Z,7.20
2022-11-19T01:11:33.707Z,7.15
2022-11-19T01:16:39.407Z,7.05
2022-11-19T01:21:43.242Z,7.00
2022-11-19T01:26:48.337Z,6.92
2022-11-19T01:31:51.997Z,6.90
2022-11-19T01:36:55.820Z,6.67
2022-11-19T01:42:00.869Z,6.73
2022-11-19T01:47:04.574Z,6.70
2022-11-19T01:52:08.377Z,6.67
2022-11-19T01:57:16.479Z,6.64
2022-11-19T02:02:22.657Z,6.62
2022-11-19T02:07:29.394Z,6.64
2022-11-19T02:12:46.734Z,6.68
2022-11-19T02:18:25.872Z,6.58
2022-11-19T02:23:58.525Z,6.39
2022-11-19T02:29:13.866Z,6.36
2022-11-19T02:34:25.742Z,6.31
2022-11-19T02:39:38.012Z,6.24
2022-11-19T02:45:00.002Z,6.17
2022-11-19T02:50:10.723Z,5.83
2022-11-19T02:55:19.986Z,5.83
2022-11-19T03:00:41.255Z,5.91
2022-11-19T03:05:51.615Z,5.89
2022-11-19T03:11:07.098Z,5.85
2022-11-19T03:16:35.958Z,5.73
2022-11-19T03:21:46.985Z,5.46
2022-11-19T03:26:55.565Z,5.56
2022-11-19T03:32:04.446Z,5.50
2022-11-19T03:37:10.728Z,5.47
2022-11-19T03:42:18.209Z,5.50
2022-11-19T03:47:25.677Z,5.52
2022-11-19T03:52:30.867Z,5.45
2022-11-19T03:57:34.837Z,5.38
2022-11-19T04:02:38.545Z,5.31
2022-11-19T04:07:43.589Z,5.22
2022-11-19T04:12:47.476Z,5.19
2022-11-19T04:17:51.089Z,5.18
2022-11-19T04:22:56.139Z,5.14
2022-11-19T04:27:59.770Z,5.04
2022-11-19T04:33:03.511Z,5.02
2022-11-19T04:38:08.598Z,5.01
2022-11-19T04:43:12.261Z,5.03
2022-11-19T04:48:15.916Z,5.02
2022-11-19T04:53:20.991Z,5.01
2022-11-19T04:58:24.718Z,4.97
2022-11-19T05:03:28.629Z,4.88
2022-11-19T05:08:33.627Z,4.91
2022-11-19T05:13:37.463Z,4.86
2022-11-19T05:18:41.243Z,4.89
2022-11-19T05:23:46.313Z,4.80
2022-11-19T05:28:50.062Z,4.78
2022-11-19T05:33:53.746Z,4.58
2022-11-19T05:38:58.852Z,4.69
2022-11-19T05:44:02.782Z,4.68
2022-11-19T05:49:06.582Z,4.63
2022-11-19T05:54:12.018Z,4.59
2022-11-19T05:59:15.854Z,4.55
2022-11-19T06:04:19.663Z,4.48
2022-11-19T06:09:24.785Z,4.40
2022-11-19T06:14:28.670Z,4.28
2022-11-19T06:19:32.363Z,4.32
2022-11-19T06:24:37.429Z,4.28
2022-11-19T06:29:41.135Z,4.29
2022-11-19T06:34:44.802Z,4.33
2022-11-19T06:39:49.902Z,4.31
2022-11-19T06:44:53.691Z,4.20
2022-11-19T06:49:57.430Z,4.14
2022-11-19T06:55:02.705Z,4.04
2022-11-19T07:00:07.586Z,3.97
2022-11-19T07:05:11.365Z,3.99
2022-11-19T07:10:17.155Z,3.96
2022-11-19T07:15:20.943Z,3.88
2022-11-19T07:20:24.626Z,3.88
2022-11-19T07:25:29.993Z,3.86
2022-11-19T07:30:33.737Z,3.83
2022-11-19T07:35:37.454Z,3.93
2022-11-19T07:40:42.594Z,3.94
2022-11-19T07:45:46.408Z,3.83
2022-11-19T07:50:56.512Z,3.81
2022-11-19T07:56:02.538Z,3.78
2022-11-19T08:01:10.270Z,3.78
2022-11-19T08:06:14.075Z,3.75
2022-11-19T08:11:19.423Z,3.74
2022-11-19T08:16:40.802Z,3.77
2022-11-19T08:21:46.519Z,3.72
2022-11-19T08:26:51.669Z,3.76
2022-11-19T08:31:55.397Z,3.72
2022-11-19T08:36:59.185Z,3.69
2022-11-19T08:42:21.810Z,3.71
2022-11-19T08:47:25.513Z,3.71
2022-11-19T08:52:29.363Z,3.78
2022-11-19T08:57:34.523Z,3.70
2022-11-19T09:02:38.381Z,3.79
2022-11-19T09:07:42.156Z,3.79
2022-11-19T09:12:47.442Z,3.74
2022-11-19T09:17:51.196Z,3.77
2022-11-19T09:22:54.915Z,3.85
2022-11-19T09:27:59.997Z,3.92
2022-11-19T09:33:03.802Z,3.97
2022-11-19T09:38:07.532Z,3.89
2022-11-19T09:43:21.255Z,3.87
2022-11-19T09:48:33.215Z,3.89
2022-11-19T09:53:43.772Z,3.83
2022-11-19T09:58:49.137Z,3.83
2022-11-19T10:03:55.615Z,3.84
2022-11-19T10:09:34.004Z,3.87
2022-11-19T10:14:56.443Z,3.92
2022-11-19T10:20:14.462Z,3.97
2022-11-19T10:25:19.987Z,4.07
2022-11-19T10:30:26.795Z,4.11
2022-11-19T10:35:33.391Z,4.09
2022-11-19T10:40:40.964Z,4.10
2022-11-19T10:45:46.009Z,4.14
2022-11-19T10:50:50.734Z,3.98
2022-11-19T10:55:58.607Z,3.87
2022-11-19T11:01:05.961Z,3.89
2022-11-19T11:06:10.356Z,3.82
2022-11-19T11:11:14.223Z,3.88
2022-11-19T11:16:21.425Z,3.97
2022-11-19T11:21:39.720Z,3.92
2022-11-19T11:26:43.479Z,3.87
2022-11-19T11:31:49.231Z,3.89
2022-11-19T11:36:54.056Z,3.74
2022-11-19T11:42:05.797Z,3.80
2022-11-19T11:47:16.171Z,3.73
2022-11-19T11:52:23.973Z,3.69
2022-11-19T11:57:29.384Z,3.71
2022-11-19T12:02:36.436Z,3.63
2022-11-19T12:08:03.782Z,3.75
2022-11-19T12:13:46.645Z,3.70
2022-11-19T12:19:09.053Z,3.62
2022-11-19T12:24:30.539Z,3.76
2022-11-19T12:29:42.765Z,3.76
2022-11-19T12:35:13.939Z,3.74
2022-11-19T12:40:38.373Z,3.75
2022-11-19T12:45:53.431Z,3.71
2022-11-19T12:51:13.170Z,3.60
2022-11-19T12:56:31.296Z,3.62
2022-11-19T13:01:38.707Z,3.61
2022-11-19T13:06:49.955Z,3.58
2022-11-19T13:11:57.754Z,3.57
2022-11-19T13:17:04.901Z,3.59
2022-11-19T13:22:17.200Z,3.55
2022-11-19T13:27:25.254Z,3.64
2022-11-19T13:32:35.882Z,3.51
2022-11-19T13:37:47.678Z,3.60
2022-11-19T13:48:37.599Z,3.77
2022-11-19T13:53:46.217Z,3.77
2022-11-19T13:58:52.613Z,3.77
2022-11-19T14:04:16.142Z,3.63
2022-11-19T14:09:32.480Z,3.71
2022-11-19T14:15:06.591Z,3.69
2022-11-19T14:20:50.194Z,3.72
2022-11-19T14:26:27.779Z,3.72
2022-11-19T14:31:31.528Z,3.71
2022-11-19T14:36:46.187Z,3.59
2022-11-19T14:42:14.951Z,3.57
2022-11-19T14:47:39.275Z,3.61
2022-11-19T14:52:52.982Z,3.63
2022-11-19T14:58:02.624Z,3.66
2022-11-19T15:03:09.641Z,3.68
2022-11-19T15:08:31.395Z,3.73
2022-11-19T15:13:37.613Z,3.75
2022-11-19T15:19:19.320Z,3.71
2022-11-19T15:24:36.255Z,3.66
2022-11-19T15:30:07.117Z,3.57
2022-11-19T15:35:28.838Z,3.55
2022-11-19T15:40:35.179Z,3.50
2022-11-19T15:45:46.123Z,3.62
2022-11-19T15:50:50.649Z,3.63
2022-11-19T15:55:57.801Z,3.70
2022-11-19T16:01:03.411Z,3.65
2022-11-19T16:06:11.371Z,3.55
2022-11-19T16:11:37.756Z,3.57
2022-11-19T16:17:00.523Z,3.58
2022-11-19T16:22:06.194Z,3.61
2022-11-19T16:27:13.152Z,3.54
2022-11-19T16:32:20.632Z,3.58
2022-11-19T16:37:25.385Z,3.57
2022-11-19T16:42:30.866Z,3.59
2022-11-19T16:47:38.526Z,3.58
2022-11-19T16:52:43.986Z,3.60
2022-11-19T16:57:48.982Z,3.55
2022-11-19T17:02:54.167Z,3.53
2022-11-19T17:08:06.131Z,3.56
2022-11-19T17:13:29.597Z,3.53
2022-11-19T17:18:35.383Z,3.54
2022-11-19T17:23:48.857Z,3.56
2022-11-19T17:28:58.302Z,3.57
2022-11-19T17:34:12.315Z,3.58
2022-11-19T17:39:21.088Z,3.51
2022-11-19T17:44:34.664Z,3.51
2022-11-19T17:49:39.914Z,3.52
2022-11-19T17:54:46.420Z,3.53
2022-11-19T17:59:50.179Z,3.42
2022-11-19T18:04:55.262Z,3.42
2022-11-19T18:09:58.963Z,3.43
2022-11-19T18:15:02.802Z,3.46
2022-11-19T18:20:09.827Z,3.51
2022-11-19T18:25:15.804Z,3.47
2022-11-19T18:30:19.698Z,3.48
2022-11-19T18:35:27.681Z,3.51
2022-11-19T18:40:31.492Z,3.39
2022-11-19T18:45:35.221Z,3.49
2022-11-19T18:50:41.706Z,3.42
2022-11-19T18:55:48.280Z,3.48
2022-11-19T19:00:52.487Z,3.42
2022-11-19T19:05:57.526Z,3.38
2022-11-19T19:11:15.615Z,3.36
2022-11-19T19:16:19.389Z,3.35
2022-11-19T19:21:24.680Z,3.28
2022-11-19T19:26:28.417Z,3.25
2022-11-19T19:31:32.422Z,3.23
2022-11-19T19:36:37.635Z,3.20
2022-11-19T19:41:41.458Z,3.21
2022-11-19T19:46:47.814Z,3.21
2022-11-19T19:51:53.146Z,3.18
2022-11-19T19:56:56.832Z,3.15
2022-11-19T20:02:00.639Z,3.12
2022-11-19T20:07:05.754Z,3.09
2022-11-19T20:12:09.513Z,3.09
2022-11-19T20:17:13.367Z,3.10
2022-11-19T20:22:18.465Z,3.07
2022-11-19T20:27:22.887Z,3.02
2022-11-19T20:32:26.734Z,2.95
2022-11-19T20:37:32.035Z,2.91
2022-11-19T20:42:53.378Z,2.86
2022-11-19T20:47:57.431Z,2.84
2022-11-19T20:53:02.511Z,2.77
2022-11-19T20:58:06.250Z,2.75
2022-11-19T21:03:10.055Z,2.72
2022-11-19T21:08:16.363Z,2.68
2022-11-19T21:13:20.089Z,2.65
2022-11-19T21:18:24.621Z,2.56
2022-11-19T21:23:30.445Z,2.58
2022-11-19T21:28:35.279Z,2.56
2022-11-19T21:33:39.037Z,2.42
2022-11-19T21:38:44.088Z,2.39
2022-11-19T21:43:47.890Z,2.26
2022-11-19T21:48:51.663Z,2.09
2022-11-19T21:53:58.082Z,2.01
2022-11-19T21:59:01.753Z,1.92
2022-11-19T22:04:06.021Z,1.89
2022-11-19T22:09:11.209Z,1.79
2022-11-19T22:14:14.953Z,1.74
2022-11-19T22:19:19.188Z,1.65
2022-11-19T22:24:24.509Z,1.56
2022-11-19T22:29:29.111Z,1.44
2022-11-19T22:34:32.823Z,1.38
2022-11-19T22:39:37.851Z,1.31
2022-11-19T22:44:41.693Z,1.22
2022-11-19T22:49:45.455Z,1.07
2022-11-19T22:54:50.522Z,1.01
2022-11-19T22:59:54.373Z,0.95
2022-11-19T23:04:59.182Z,0.86
2022-11-19T23:10:04.525Z,0.81
2022-11-19T23:15:08.929Z,0.81
2022-11-19T23:20:13.001Z,0.80
2022-11-19T23:25:18.109Z,0.74
2022-11-19T23:30:21.882Z,0.70
2022-11-19T23:35:25.589Z,0.65
2022-11-19T23:40:30.622Z,0.56
2022-11-19T23:45:36.548Z,0.54
2022-11-19T23:50:40.255Z,0.49
2022-11-19T23:55:48.422Z,0.42
